Terminal Aerodrome Forecast
Issued by NWS Grand Rapids, MI

Home | Current Version | Previous Version | Text Only | Print | Product List | Glossary On
Versions: 1 2 3 4 5 6 7 8 9 10 11 12 13 14 15 16 17 18 19 20 21 22 23 24 25 26 27 28
772
FTUS43 KGRR 221740
TAFGRR
TAF
KGRR 221740Z 2218/2318 22010KT 5SM HZ SCT009 OVC015
     FM221900 23010G16KT P6SM BKN015
     FM222200 20010G16KT P6SM BKN025
     FM230300 23010KT 4SM BR BKN009
     FM230900 24008KT 2SM BR OVC007
     FM231500 34009KT P6SM BKN025=

USA.gov is the U.S. government's official web portal to all federal, state and local government web resources and services.